Terminal Aerodrome Forecast
Issued by NWS

Home | Current Version | Previous Version | Text Only | Print | Product List | Glossary On
Versions: 1 2 3 4 5 6 7 8 9 10 11 12 13 14 15 16 17 18 19 20 21 22 23 24 25 26
000
FTPQ31 PGUM 271133
TAFGUM
TAF

TAF
PTKK 271133Z 2712/2812 VRB06KT P6SM VCSH SCT013 BKN100
      TEMPO 2712/2716 3SM TSRA SCT012CB BKN025=

USA.gov is the U.S. government's official web portal to all federal, state and local government web resources and services.